createdAt,value
2019-02-26T00:01:26.224Z,4.30
2019-02-26T00:03:55.114Z,4.50
2019-02-26T00:06:25.375Z,4.50
2019-02-26T00:08:56.617Z,4.60
2019-02-26T00:11:28.315Z,4.70
2019-02-26T00:13:57.322Z,4.60
2019-02-26T00:16:27.446Z,4.50
2019-02-26T00:19:00.621Z,4.50
2019-02-26T00:21:29.279Z,4.40
2019-02-26T00:23:57.804Z,4.20
2019-02-26T00:26:26.974Z,4.20
2019-02-26T00:28:57.329Z,4.30
2019-02-26T00:31:28.286Z,4.30
2019-02-26T00:33:57.522Z,4.10
2019-02-26T00:36:27.126Z,4.10
2019-02-26T00:38:58.455Z,4.20
2019-02-26T00:41:29.068Z,4.10
2019-02-26T00:43:59.941Z,4.10
2019-02-26T00:46:30.209Z,4.20
2019-02-26T00:49:01.347Z,4.20
2019-02-26T00:51:31.212Z,4.20
2019-02-26T00:54:01.841Z,4.20
2019-02-26T00:56:31.632Z,4.20
2019-02-26T00:59:01.374Z,4.30
2019-02-26T01:01:30.598Z,4.20
2019-02-26T01:03:59.710Z,4.10
2019-02-26T01:06:31.038Z,4.00
2019-02-26T01:09:01.971Z,3.90
2019-02-26T01:11:30.959Z,3.70
2019-02-26T01:13:59.963Z,3.80
2019-02-26T01:16:29.449Z,3.70
2019-02-26T01:18:58.286Z,3.70
2019-02-26T01:21:29.118Z,3.70
2019-02-26T01:23:59.597Z,3.70
2019-02-26T01:26:28.595Z,4.00
2019-02-26T01:28:58.660Z,3.90
2019-02-26T01:31:29.283Z,3.90
2019-02-26T01:33:59.194Z,3.90
2019-02-26T01:36:28.884Z,3.80
2019-02-26T01:38:57.830Z,3.80
2019-02-26T01:41:27.387Z,3.90
2019-02-26T01:43:56.413Z,3.80
2019-02-26T01:46:25.333Z,3.90
2019-02-26T01:48:55.268Z,3.90
2019-02-26T01:51:26.152Z,3.80
2019-02-26T01:53:56.473Z,3.70
2019-02-26T01:56:25.473Z,3.60
2019-02-26T01:58:56.889Z,3.50
2019-02-26T02:01:26.181Z,3.50
2019-02-26T02:03:56.219Z,3.60
2019-02-26T02:06:25.430Z,3.50
2019-02-26T02:08:55.757Z,3.60
2019-02-26T02:11:28.434Z,3.60
2019-02-26T02:13:56.068Z,3.60
2019-02-26T02:16:27.263Z,3.60
2019-02-26T02:18:57.579Z,3.60
2019-02-26T02:21:30.412Z,3.60
2019-02-26T02:23:57.379Z,3.50
2019-02-26T02:26:26.384Z,3.60
2019-02-26T02:28:55.568Z,3.70
2019-02-26T02:31:25.114Z,3.70
2019-02-26T02:33:55.342Z,3.70
2019-02-26T02:36:26.399Z,3.70
2019-02-26T02:38:54.830Z,3.60
2019-02-26T02:41:23.754Z,3.40
2019-02-26T02:43:52.605Z,3.50
2019-02-26T02:46:21.437Z,3.30
2019-02-26T02:48:50.294Z,3.20
2019-02-26T02:51:19.476Z,3.20
2019-02-26T02:53:50.622Z,3.30
2019-02-26T02:56:19.232Z,3.30
2019-02-26T02:58:51.040Z,3.30
2019-02-26T03:01:22.278Z,3.20
2019-02-26T03:03:53.113Z,3.30
2019-02-26T03:06:21.362Z,3.20
2019-02-26T03:08:51.054Z,3.20
2019-02-26T03:11:21.577Z,3.20
2019-02-26T03:13:51.260Z,3.30
2019-02-26T03:16:23.431Z,3.30
2019-02-26T03:18:52.019Z,3.40
2019-02-26T03:21:22.095Z,3.50
2019-02-26T03:23:51.613Z,3.30
2019-02-26T03:26:22.836Z,3.20
2019-02-26T03:28:53.293Z,3.30
2019-02-26T03:31:28.546Z,3.30
2019-02-26T03:34:00.054Z,3.40
2019-02-26T03:36:23.534Z,3.30
2019-02-26T03:38:54.802Z,3.30
2019-02-26T03:41:25.708Z,3.30
2019-02-26T03:43:54.448Z,3.40
2019-02-26T03:46:25.078Z,3.30
2019-02-26T03:48:53.933Z,3.40
2019-02-26T03:51:23.181Z,3.40
2019-02-26T03:53:52.419Z,3.30
2019-02-26T03:56:21.601Z,3.20
2019-02-26T03:58:54.478Z,3.20
2019-02-26T04:01:21.645Z,3.20
2019-02-26T04:03:51.097Z,3.20
2019-02-26T04:06:20.011Z,3.10
2019-02-26T04:08:51.025Z,3.20
2019-02-26T04:11:22.048Z,3.20
2019-02-26T04:13:52.169Z,3.10
2019-02-26T04:16:21.273Z,3.30
2019-02-26T04:18:51.990Z,3.30
2019-02-26T04:21:21.335Z,3.00
2019-02-26T04:23:51.529Z,2.90
2019-02-26T04:27:05.306Z,2.70
2019-02-26T04:29:55.801Z,2.70
2019-02-26T04:33:07.228Z,2.70
2019-02-26T04:35:55.505Z,2.80
2019-02-26T04:38:39.458Z,2.90
2019-02-26T04:41:22.989Z,2.90
2019-02-26T04:44:55.190Z,3.00
2019-02-26T04:47:30.802Z,2.90
2019-02-26T04:50:00.538Z,2.80
2019-02-26T04:52:32.289Z,2.70
2019-02-26T04:55:01.471Z,2.70
2019-02-26T04:57:30.578Z,2.80
2019-02-26T05:00:01.364Z,2.70
2019-02-26T05:02:31.035Z,2.80
2019-02-26T05:05:00.230Z,2.80
2019-02-26T05:07:29.544Z,2.90
2019-02-26T05:09:59.360Z,2.80
2019-02-26T05:12:31.610Z,2.80
2019-02-26T05:14:59.733Z,2.90
2019-02-26T05:17:30.793Z,3.00
2019-02-26T05:19:59.577Z,2.90
2019-02-26T05:22:31.035Z,2.90
2019-02-26T05:24:59.005Z,2.80
2019-02-26T05:27:28.145Z,2.80
2019-02-26T05:29:57.014Z,2.70
2019-02-26T05:32:29.365Z,2.50
2019-02-26T05:34:56.526Z,2.50
2019-02-26T05:37:28.879Z,2.40
2019-02-26T05:39:56.554Z,2.30
2019-02-26T05:42:25.696Z,2.40
2019-02-26T05:44:56.705Z,2.40
2019-02-26T05:47:26.690Z,2.50
2019-02-26T05:49:55.961Z,2.60
2019-02-26T05:52:27.239Z,2.70
2019-02-26T05:54:55.483Z,2.80
2019-02-26T05:57:27.738Z,2.70
2019-02-26T05:59:54.931Z,2.80
2019-02-26T06:02:24.663Z,2.80
2019-02-26T06:04:53.955Z,2.90
2019-02-26T06:07:25.108Z,2.80
2019-02-26T06:09:56.438Z,2.70
2019-02-26T06:12:25.453Z,2.60
2019-02-26T06:14:57.548Z,2.40
2019-02-26T06:17:24.906Z,2.20
2019-02-26T06:19:57.035Z,2.10
2019-02-26T06:22:27.204Z,2.00
2019-02-26T06:24:59.501Z,1.90
2019-02-26T06:27:27.698Z,1.90
2019-02-26T06:29:58.129Z,1.80
2019-02-26T06:32:30.011Z,1.90
2019-02-26T06:34:58.222Z,2.00
2019-02-26T06:37:29.074Z,2.00
2019-02-26T06:39:59.898Z,1.90
2019-02-26T06:42:28.852Z,1.90
2019-02-26T06:44:58.903Z,1.90
2019-02-26T06:47:29.141Z,2.00
2019-02-26T06:49:58.923Z,2.00
2019-02-26T06:52:29.932Z,2.20
2019-02-26T06:55:00.109Z,2.10
2019-02-26T06:57:29.200Z,2.20
2019-02-26T07:00:01.020Z,2.20
2019-02-26T07:02:29.144Z,2.20
2019-02-26T07:04:58.163Z,2.30
2019-02-26T07:07:27.201Z,2.40
2019-02-26T07:09:58.051Z,2.50
2019-02-26T07:12:27.439Z,2.50
2019-02-26T07:14:58.066Z,2.50
2019-02-26T07:17:31.904Z,2.50
2019-02-26T07:19:59.918Z,2.60
2019-02-26T07:22:28.739Z,2.60
2019-02-26T07:24:57.700Z,2.70
2019-02-26T07:27:28.689Z,2.70
2019-02-26T07:29:57.951Z,2.70
2019-02-26T07:32:27.178Z,2.80
2019-02-26T07:34:58.025Z,2.80
2019-02-26T07:37:28.639Z,2.90
2019-02-26T07:39:57.455Z,3.00
2019-02-26T07:42:26.346Z,3.30
2019-02-26T07:44:55.195Z,3.30
2019-02-26T07:47:24.784Z,3.30
2019-02-26T07:49:56.522Z,3.50
2019-02-26T07:52:26.524Z,3.60
2019-02-26T07:54:56.350Z,3.80
2019-02-26T07:57:27.573Z,4.00
2019-02-26T07:59:56.446Z,4.20
2019-02-26T08:02:26.056Z,4.40
2019-02-26T08:04:56.013Z,4.60
2019-02-26T08:07:26.724Z,4.80
2019-02-26T08:09:56.200Z,4.90
2019-02-26T08:12:25.399Z,5.20
2019-02-26T08:14:54.284Z,5.50
2019-02-26T08:17:23.797Z,5.60
2019-02-26T08:19:52.994Z,5.60
2019-02-26T08:22:22.197Z,5.70
2019-02-26T08:24:52.862Z,5.90
2019-02-26T08:27:22.127Z,6.10
2019-02-26T08:29:51.712Z,6.30
2019-02-26T08:32:24.063Z,6.50
2019-02-26T08:34:53.205Z,6.60
2019-02-26T08:37:22.161Z,6.80
2019-02-26T08:39:51.298Z,7.10
2019-02-26T08:42:20.599Z,7.30
2019-02-26T08:44:51.211Z,7.40
2019-02-26T08:47:21.207Z,7.50
2019-02-26T08:49:50.965Z,7.60
2019-02-26T08:52:22.717Z,7.90
2019-02-26T08:54:51.101Z,8.20
2019-02-26T08:57:20.030Z,9.00
2019-02-26T08:59:49.671Z,10.00
2019-02-26T09:02:19.816Z,11.40
2019-02-26T09:04:49.427Z,12.20
2019-02-26T09:07:19.543Z,12.70
2019-02-26T09:09:50.121Z,13.60
2019-02-26T09:12:19.842Z,14.30
2019-02-26T09:14:50.819Z,15.00
2019-02-26T09:17:23.183Z,15.50
2019-02-26T09:19:50.925Z,16.00
2019-02-26T09:22:21.657Z,16.60
2019-02-26T09:24:52.053Z,16.90
2019-02-26T09:27:24.344Z,17.20
2019-02-26T09:29:53.302Z,17.10
2019-02-26T09:32:22.486Z,17.40
2019-02-26T09:34:52.097Z,17.60
2019-02-26T09:37:22.150Z,17.80
2019-02-26T09:39:52.065Z,18.10
2019-02-26T09:42:23.304Z,18.40
2019-02-26T09:44:53.119Z,18.20
2019-02-26T09:47:32.841Z,18.90
2019-02-26T09:50:00.335Z,19.60
2019-02-26T09:52:30.319Z,19.80
2019-02-26T09:54:59.948Z,19.70
2019-02-26T09:57:28.864Z,20.20
2019-02-26T10:00:00.083Z,20.70
2019-02-26T10:02:28.955Z,20.30
2019-02-26T10:04:58.134Z,20.60
2019-02-26T10:07:28.558Z,21.10
2019-02-26T10:09:59.840Z,21.00
2019-02-26T10:12:29.887Z,21.60
2019-02-26T10:15:02.470Z,21.60
2019-02-26T10:17:30.337Z,22.00
2019-02-26T10:20:01.594Z,22.50
2019-02-26T10:22:33.321Z,22.60
2019-02-26T10:25:01.247Z,22.50
2019-02-26T10:27:33.646Z,22.20
2019-02-26T10:30:02.922Z,22.00
2019-02-26T10:32:32.839Z,21.90
2019-02-26T10:35:01.918Z,22.20
2019-02-26T10:37:31.899Z,22.00
2019-02-26T10:40:02.051Z,22.10
2019-02-26T10:42:39.590Z,22.00
2019-02-26T10:45:02.005Z,21.90
2019-02-26T10:47:32.705Z,21.50
2019-02-26T10:50:01.532Z,21.50
2019-02-26T10:52:30.747Z,21.80
2019-02-26T10:55:00.145Z,21.90
2019-02-26T10:57:31.086Z,21.70
2019-02-26T11:00:02.573Z,21.40
2019-02-26T11:02:31.006Z,21.50
2019-02-26T11:04:59.963Z,21.30
2019-02-26T11:07:31.726Z,21.70
2019-02-26T11:09:59.633Z,21.20
2019-02-26T11:12:30.810Z,21.30
2019-02-26T11:15:01.593Z,21.10
2019-02-26T11:17:31.614Z,20.90
2019-02-26T11:20:01.298Z,20.90
2019-02-26T11:22:31.752Z,21.30
2019-02-26T11:25:01.471Z,21.40
2019-02-26T11:27:30.858Z,21.10
2019-02-26T11:30:01.792Z,21.10
2019-02-26T11:32:32.523Z,21.40
2019-02-26T11:35:02.506Z,21.40
2019-02-26T11:37:52.351Z,21.10
2019-02-26T11:40:23.036Z,21.00
2019-02-26T11:42:52.982Z,21.10
2019-02-26T11:45:22.221Z,21.30
2019-02-26T11:47:51.505Z,21.30
2019-02-26T11:50:21.538Z,21.50
2019-02-26T11:52:54.284Z,21.30
2019-02-26T11:55:23.557Z,21.40
2019-02-26T11:57:53.085Z,21.20
2019-02-26T12:01:01.037Z,20.90
2019-02-26T12:03:33.201Z,20.60
2019-02-26T12:06:02.086Z,20.70
2019-02-26T12:08:31.556Z,20.60
2019-02-26T12:11:03.556Z,20.50
2019-02-26T12:13:31.727Z,20.60
2019-02-26T12:16:00.607Z,20.60
2019-02-26T12:18:29.658Z,20.40
2019-02-26T12:21:00.132Z,20.30
2019-02-26T12:23:29.561Z,20.10
2019-02-26T12:26:01.092Z,19.70
2019-02-26T12:28:31.761Z,19.50
2019-02-26T12:31:01.275Z,18.90
2019-02-26T12:33:32.557Z,18.70
2019-02-26T12:36:02.567Z,18.70
2019-02-26T12:38:36.449Z,18.50
2019-02-26T12:41:02.874Z,18.40
2019-02-26T12:43:33.313Z,18.60
2019-02-26T12:46:04.762Z,18.20
2019-02-26T12:48:35.170Z,18.00
2019-02-26T12:51:05.345Z,17.50
2019-02-26T12:53:46.810Z,17.20
2019-02-26T12:56:15.424Z,17.40
2019-02-26T12:58:45.233Z,17.30
2019-02-26T13:01:15.075Z,17.20
2019-02-26T13:03:47.296Z,17.20
2019-02-26T13:06:18.885Z,17.10
2019-02-26T13:08:47.667Z,17.20
2019-02-26T13:11:18.309Z,17.00
2019-02-26T13:13:50.195Z,16.80
2019-02-26T13:16:19.238Z,16.60
2019-02-26T13:18:51.233Z,16.60
2019-02-26T13:21:18.897Z,16.50
2019-02-26T13:23:48.060Z,16.40
2019-02-26T13:26:19.534Z,16.30
2019-02-26T13:28:52.715Z,16.20
2019-02-26T13:31:22.475Z,16.00
2019-02-26T13:33:50.230Z,16.00
2019-02-26T13:36:19.236Z,16.00
2019-02-26T13:38:49.306Z,15.90
2019-02-26T13:41:29.524Z,15.90
2019-02-26T13:43:50.565Z,15.80
2019-02-26T13:46:19.569Z,15.80
2019-02-26T13:48:48.745Z,15.80
2019-02-26T13:51:17.673Z,15.80
2019-02-26T13:53:46.794Z,15.70
2019-02-26T13:56:15.649Z,15.60
2019-02-26T13:58:44.592Z,15.60
2019-02-26T14:01:13.811Z,15.60
2019-02-26T14:03:42.979Z,15.60
2019-02-26T14:06:12.062Z,15.60
2019-02-26T14:08:41.301Z,15.60
2019-02-26T14:11:10.429Z,15.70
2019-02-26T14:13:39.389Z,15.70
2019-02-26T14:16:08.318Z,15.70
2019-02-26T14:18:37.700Z,15.70
2019-02-26T14:21:06.778Z,15.70
2019-02-26T14:23:35.878Z,15.70
2019-02-26T14:26:05.302Z,15.70
2019-02-26T14:28:34.291Z,15.70
2019-02-26T14:31:03.287Z,15.60
2019-02-26T14:33:32.349Z,15.60
2019-02-26T14:36:01.562Z,15.60
2019-02-26T14:38:30.801Z,15.60
2019-02-26T14:41:00.142Z,15.60
2019-02-26T14:43:30.139Z,15.70
2019-02-26T14:45:59.690Z,15.60
2019-02-26T14:48:28.690Z,15.60
2019-02-26T14:50:57.986Z,15.60
2019-02-26T14:53:27.669Z,15.70
2019-02-26T14:55:57.068Z,15.70
2019-02-26T14:58:26.046Z,15.70
2019-02-26T15:00:58.189Z,15.70
2019-02-26T15:03:26.892Z,15.70
2019-02-26T15:05:56.550Z,15.70
2019-02-26T15:08:25.917Z,15.70
2019-02-26T15:10:54.887Z,15.70
2019-02-26T15:13:25.457Z,15.70
2019-02-26T15:15:54.618Z,15.70
2019-02-26T15:18:23.498Z,15.70
2019-02-26T15:20:53.578Z,15.70
2019-02-26T15:23:23.205Z,15.70
2019-02-26T15:25:52.195Z,15.60
2019-02-26T15:28:32.761Z,15.70
2019-02-26T15:31:01.786Z,15.60
2019-02-26T15:33:30.895Z,15.60
2019-02-26T15:36:00.262Z,15.60
2019-02-26T15:38:29.552Z,15.60
2019-02-26T15:40:58.406Z,15.60
2019-02-26T15:43:27.395Z,15.60
2019-02-26T15:45:57.721Z,15.60
2019-02-26T15:48:27.159Z,15.60
2019-02-26T15:50:56.734Z,15.50
2019-02-26T15:53:26.165Z,15.50
2019-02-26T15:55:59.179Z,15.50
2019-02-26T15:58:26.507Z,15.40
2019-02-26T16:00:55.542Z,15.40
2019-02-26T16:03:24.576Z,15.30
2019-02-26T16:05:54.083Z,15.30
2019-02-26T16:08:23.162Z,15.20
2019-02-26T16:10:52.591Z,15.20
2019-02-26T16:13:21.583Z,15.10
2019-02-26T16:15:51.016Z,15.00
2019-02-26T16:18:20.306Z,15.00
2019-02-26T16:20:49.369Z,14.90
2019-02-26T16:23:19.011Z,14.80
2019-02-26T16:25:48.483Z,14.70
2019-02-26T16:28:19.302Z,14.60
2019-02-26T16:30:48.399Z,14.60
2019-02-26T16:33:19.112Z,14.50
2019-02-26T16:35:48.642Z,14.30
2019-02-26T16:38:19.359Z,14.20
2019-02-26T16:40:49.000Z,14.10
2019-02-26T16:43:18.122Z,14.10
2019-02-26T16:45:47.106Z,13.90
2019-02-26T16:48:16.727Z,13.80
2019-02-26T16:50:46.130Z,13.60
2019-02-26T16:53:16.220Z,13.50
2019-02-26T16:55:48.507Z,13.40
2019-02-26T16:58:17.311Z,13.40
2019-02-26T17:00:46.560Z,13.30
2019-02-26T17:03:16.954Z,13.10
2019-02-26T17:05:47.691Z,13.00
2019-02-26T17:08:16.995Z,12.90
2019-02-26T17:10:46.342Z,12.60
2019-02-26T17:13:15.677Z,12.60
2019-02-26T17:15:44.722Z,12.50
2019-02-26T17:18:13.675Z,12.40
2019-02-26T17:20:42.702Z,12.30
2019-02-26T17:23:14.034Z,12.10
2019-02-26T17:25:44.311Z,12.00
2019-02-26T17:28:14.070Z,11.80
2019-02-26T17:30:43.452Z,11.60
2019-02-26T17:33:14.560Z,11.80
2019-02-26T17:35:44.008Z,11.80
2019-02-26T17:38:15.440Z,11.50
2019-02-26T17:40:46.041Z,11.40
2019-02-26T17:43:37.393Z,11.30
2019-02-26T17:46:07.849Z,11.30
2019-02-26T17:48:43.544Z,11.30
2019-02-26T17:51:09.598Z,11.20
2019-02-26T17:53:39.452Z,11.00
2019-02-26T17:56:08.502Z,10.90
2019-02-26T17:58:37.654Z,10.70
2019-02-26T18:01:07.102Z,10.60
2019-02-26T18:03:36.502Z,10.40
2019-02-26T18:06:05.907Z,10.50
2019-02-26T18:08:35.102Z,10.40
2019-02-26T18:11:04.669Z,10.40
2019-02-26T18:13:34.110Z,10.40
2019-02-26T18:16:09.249Z,10.40
2019-02-26T18:18:34.402Z,10.40
2019-02-26T18:21:05.990Z,10.50
2019-02-26T18:23:37.528Z,10.60
2019-02-26T18:26:05.737Z,10.50
2019-02-26T18:28:36.745Z,10.30
2019-02-26T18:31:05.920Z,10.30
2019-02-26T18:33:36.197Z,10.20
2019-02-26T18:36:06.217Z,10.00
2019-02-26T18:38:35.138Z,9.80
2019-02-26T18:41:04.084Z,9.60
2019-02-26T18:43:33.707Z,9.60
2019-02-26T18:46:02.750Z,9.50
2019-02-26T18:48:31.745Z,9.40
2019-02-26T18:51:02.515Z,9.30
2019-02-26T18:53:32.244Z,9.20
2019-02-26T18:56:04.115Z,9.20
2019-02-26T18:58:32.790Z,9.30
2019-02-26T19:01:01.680Z,9.20
2019-02-26T19:03:30.985Z,9.10
2019-02-26T19:05:59.959Z,9.10
2019-02-26T19:08:29.197Z,9.10
2019-02-26T19:10:58.474Z,8.90
2019-02-26T19:13:27.699Z,8.80
2019-02-26T19:15:56.638Z,8.70
2019-02-26T19:18:25.755Z,8.80
2019-02-26T19:20:54.708Z,8.90
2019-02-26T19:23:25.074Z,9.00
2019-02-26T19:25:54.074Z,9.10
2019-02-26T19:28:25.596Z,9.00
2019-02-26T19:30:54.207Z,8.90
2019-02-26T19:33:23.354Z,9.00
2019-02-26T19:35:52.230Z,8.90
2019-02-26T19:38:21.086Z,8.90
2019-02-26T19:40:50.310Z,8.80
2019-02-26T19:43:19.490Z,8.70
2019-02-26T19:45:48.886Z,8.70
2019-02-26T19:48:18.070Z,8.60
2019-02-26T19:50:48.675Z,8.50
2019-02-26T19:53:17.925Z,8.50
2019-02-26T19:55:49.731Z,8.30
2019-02-26T19:58:18.166Z,8.20
2019-02-26T20:00:47.087Z,8.20
2019-02-26T20:03:16.739Z,8.10
2019-02-26T20:05:47.152Z,8.10
2019-02-26T20:08:16.274Z,8.10
2019-02-26T20:10:48.003Z,8.10
2019-02-26T20:13:18.176Z,8.10
2019-02-26T20:15:47.667Z,7.90
2019-02-26T20:18:20.764Z,7.80
2019-02-26T20:20:47.375Z,7.60
2019-02-26T20:23:16.712Z,7.50
2019-02-26T20:25:46.906Z,7.50
2019-02-26T20:28:16.347Z,7.50
2019-02-26T20:30:45.719Z,7.50
2019-02-26T20:33:14.934Z,7.50
2019-02-26T20:35:45.372Z,7.60
2019-02-26T20:38:15.105Z,7.60
2019-02-26T20:40:43.931Z,7.50
2019-02-26T20:43:12.825Z,7.40
2019-02-26T20:45:42.134Z,7.40
2019-02-26T20:48:11.333Z,7.40
2019-02-26T20:50:40.260Z,7.30
2019-02-26T20:53:09.553Z,7.30
2019-02-26T20:55:38.481Z,7.40
2019-02-26T20:58:09.646Z,7.40
2019-02-26T21:00:42.398Z,7.50
2019-02-26T21:03:09.034Z,7.30
2019-02-26T21:05:37.889Z,7.20
2019-02-26T21:08:06.846Z,7.00
2019-02-26T21:10:35.773Z,7.00
2019-02-26T21:13:04.805Z,6.70
2019-02-26T21:15:33.829Z,6.70
2019-02-26T21:18:02.798Z,6.70
2019-02-26T21:20:31.657Z,6.50
2019-02-26T21:23:01.234Z,6.50
2019-02-26T21:25:30.177Z,6.70
2019-02-26T21:28:01.461Z,6.60
2019-02-26T21:30:29.821Z,6.50
2019-02-26T21:32:59.463Z,6.60
2019-02-26T21:35:28.763Z,6.60
2019-02-26T21:37:58.067Z,6.60
2019-02-26T21:40:27.265Z,6.60
2019-02-26T21:42:56.197Z,6.60
2019-02-26T21:45:25.130Z,6.50
2019-02-26T21:47:54.349Z,6.40
2019-02-26T21:50:23.286Z,6.20
2019-02-26T21:52:59.845Z,6.20
2019-02-26T21:55:22.843Z,6.30
2019-02-26T21:57:54.561Z,6.20
2019-02-26T22:00:22.422Z,6.20
2019-02-26T22:02:52.967Z,6.20
2019-02-26T22:05:21.969Z,6.20
2019-02-26T22:07:52.399Z,6.10
2019-02-26T22:10:22.016Z,6.10
2019-02-26T22:12:50.943Z,6.00
2019-02-26T22:15:19.914Z,6.10
2019-02-26T22:17:48.785Z,6.10
2019-02-26T22:20:23.604Z,6.20
2019-02-26T22:22:48.613Z,6.10
2019-02-26T22:25:17.829Z,6.10
2019-02-26T22:27:46.828Z,6.10
2019-02-26T22:30:21.540Z,6.00
2019-02-26T22:32:47.433Z,6.10
2019-02-26T22:35:16.801Z,5.90
2019-02-26T22:37:46.002Z,5.80
2019-02-26T22:40:15.025Z,5.90
2019-02-26T22:42:44.395Z,5.80
2019-02-26T22:45:13.742Z,5.80
2019-02-26T22:47:44.044Z,5.70
2019-02-26T22:50:13.643Z,5.70
2019-02-26T22:52:42.647Z,5.70
2019-02-26T22:55:16.063Z,5.60
2019-02-26T22:57:42.739Z,5.70
2019-02-26T23:00:54.140Z,5.60
2019-02-26T23:03:23.438Z,5.60
2019-02-26T23:05:52.475Z,5.60
2019-02-26T23:08:21.458Z,5.70
2019-02-26T23:10:51.299Z,5.70
2019-02-26T23:13:20.667Z,5.50
2019-02-26T23:15:49.947Z,5.50
2019-02-26T23:18:19.833Z,5.40
2019-02-26T23:20:49.154Z,5.60
2019-02-26T23:23:21.690Z,5.50
2019-02-26T23:25:49.413Z,5.60
2019-02-26T23:28:21.711Z,5.70
2019-02-26T23:30:50.252Z,5.80
2019-02-26T23:33:19.551Z,5.60
2019-02-26T23:35:49.039Z,5.60
2019-02-26T23:38:18.033Z,5.30
2019-02-26T23:40:47.122Z,5.30
2019-02-26T23:43:16.262Z,5.20
2019-02-26T23:45:45.458Z,5.20
2019-02-26T23:48:14.482Z,5.10
2019-02-26T23:50:47.083Z,5.20
2019-02-26T23:53:14.210Z,5.10
2019-02-26T23:55:46.442Z,5.10
2019-02-26T23:58:14.092Z,5.30
